Tamanrasset, Algeria
Current Conditions -  °F | °C
As of 5:00 PM on Saturday 27 Dec 2014 (Local Time) from DAAT Reporting Station
Clear Clear  
Wind Chill: 57°   Ceiling: Unl
Heat Index: 57°   Visibility: 6mi
Dew Point: 21°   Wind: 8mph
Humidity: 25%   Direction: 160°SSE
Pressure: 30.12"   Gusts: NA
Location:  22.78°N, 5.52°E
Report Text: DAAT 271600Z 16007KT 120V180 CAVOK 14/M06 Q1020
Loading
Personal Weather Stations






























Interactive Weather Map New forecast layout! Learn more

10-Day Weather Forecast

Advertisements
Track Severe Weather on mobile